createdAt,value
2023-04-13T00:01:50.772Z,6.50
2023-04-13T00:04:19.841Z,6.40
2023-04-13T00:06:50.584Z,7.00
2023-04-13T00:09:20.705Z,7.00
2023-04-13T00:11:50.188Z,7.20
2023-04-13T00:14:21.524Z,7.70
2023-04-13T00:16:54.660Z,7.30
2023-04-13T00:19:24.174Z,7.30
2023-04-13T00:21:55.513Z,7.60
2023-04-13T00:24:24.697Z,6.70
2023-04-13T00:26:54.886Z,6.00
2023-04-13T00:29:23.590Z,6.20
2023-04-13T00:31:51.840Z,6.50
2023-04-13T00:34:22.395Z,6.30
2023-04-13T00:36:51.112Z,6.90
2023-04-13T00:39:23.320Z,6.70
2023-04-13T00:41:53.234Z,6.90
2023-04-13T00:44:23.831Z,7.50
2023-04-13T00:46:54.575Z,7.10
2023-04-13T00:49:23.083Z,7.10
2023-04-13T00:51:53.134Z,6.80
2023-04-13T00:54:22.348Z,7.10
2023-04-13T00:56:51.052Z,7.20
2023-04-13T00:59:21.085Z,7.30
2023-04-13T01:01:56.648Z,6.80
2023-04-13T01:04:34.050Z,7.00
2023-04-13T01:07:13.532Z,7.00
2023-04-13T01:09:52.568Z,7.10
2023-04-13T01:12:42.242Z,6.70
2023-04-13T01:15:15.283Z,6.90
2023-04-13T01:17:46.563Z,6.40
2023-04-13T01:20:20.516Z,6.70
2023-04-13T01:22:57.330Z,6.90
2023-04-13T01:25:28.629Z,7.40
2023-04-13T01:28:03.922Z,7.80
2023-04-13T01:30:34.642Z,8.60
2023-04-13T01:33:04.113Z,8.10
2023-04-13T01:35:40.092Z,8.10
2023-04-13T01:38:10.323Z,7.90
2023-04-13T01:40:41.284Z,8.10
2023-04-13T01:43:11.549Z,7.70
2023-04-13T01:45:50.869Z,7.70
2023-04-13T01:48:22.248Z,6.70
2023-04-13T01:50:59.189Z,6.80
2023-04-13T01:53:51.693Z,6.30
2023-04-13T01:56:24.748Z,6.40
2023-04-13T01:59:00.989Z,6.40
2023-04-13T02:01:30.457Z,7.00
2023-04-13T02:04:15.096Z,6.20
2023-04-13T02:06:48.350Z,6.20
2023-04-13T02:09:17.262Z,6.30
2023-04-13T02:11:46.170Z,6.30
2023-04-13T02:14:26.161Z,7.00
2023-04-13T02:16:58.344Z,6.30
2023-04-13T02:19:26.433Z,6.40
2023-04-13T02:21:57.589Z,6.40
2023-04-13T02:24:30.462Z,6.50
2023-04-13T02:26:58.754Z,6.50
2023-04-13T02:29:26.905Z,6.00
2023-04-13T02:32:02.072Z,6.20
2023-04-13T02:34:32.209Z,6.70
2023-04-13T02:37:01.035Z,6.70
2023-04-13T02:39:39.887Z,6.90
2023-04-13T02:42:10.603Z,6.70
2023-04-13T02:44:38.859Z,6.40
2023-04-13T02:47:14.531Z,6.30
2023-04-13T02:49:46.018Z,6.40
2023-04-13T02:52:23.459Z,6.60
2023-04-13T02:54:57.931Z,6.30
2023-04-13T02:57:29.967Z,6.50
2023-04-13T02:59:58.675Z,6.30
2023-04-13T03:02:35.819Z,6.50
2023-04-13T03:05:08.960Z,6.80
2023-04-13T03:07:37.831Z,7.10
2023-04-13T03:10:09.013Z,7.20
2023-04-13T03:12:38.784Z,6.80
2023-04-13T03:15:11.340Z,7.40
2023-04-13T03:17:41.777Z,6.90
2023-04-13T03:20:13.198Z,7.10
2023-04-13T03:22:45.488Z,7.20
2023-04-13T03:25:14.358Z,6.70
2023-04-13T03:27:43.833Z,6.90
2023-04-13T03:30:12.832Z,6.90
2023-04-13T03:32:52.491Z,7.20
2023-04-13T03:35:22.355Z,7.10
2023-04-13T03:37:50.842Z,7.10
2023-04-13T03:40:29.176Z,6.70
2023-04-13T03:42:58.337Z,7.00
2023-04-13T03:45:31.852Z,7.10
2023-04-13T03:48:01.745Z,6.60
2023-04-13T03:50:31.465Z,6.50
2023-04-13T03:53:01.303Z,6.60
2023-04-13T03:55:30.212Z,6.80
2023-04-13T03:58:04.616Z,6.90
2023-04-13T04:00:33.360Z,6.90
2023-04-13T04:03:09.752Z,7.90
2023-04-13T04:05:47.953Z,7.50
2023-04-13T04:08:18.654Z,7.00
2023-04-13T04:10:48.243Z,6.90
2023-04-13T04:13:17.408Z,6.70
2023-04-13T04:15:54.821Z,7.20
2023-04-13T04:18:25.315Z,7.00
2023-04-13T04:20:54.765Z,6.60
2023-04-13T04:23:28.425Z,6.70
2023-04-13T04:26:03.557Z,7.00
2023-04-13T04:28:40.621Z,7.10
2023-04-13T04:31:12.811Z,6.80
2023-04-13T04:33:44.417Z,6.70
2023-04-13T04:36:14.255Z,6.90
2023-04-13T04:39:02.728Z,6.30
2023-04-13T04:41:37.967Z,6.40
2023-04-13T04:44:08.019Z,6.50
2023-04-13T04:46:41.891Z,6.60
2023-04-13T04:51:42.799Z,6.10
2023-04-13T04:54:17.536Z,6.40
2023-04-13T04:56:50.761Z,6.90
2023-04-13T04:59:20.003Z,6.10
2023-04-13T05:01:57.299Z,6.30
2023-04-13T05:04:26.328Z,6.20
2023-04-13T05:06:54.519Z,7.00
2023-04-13T05:09:26.813Z,6.70
2023-04-13T05:11:56.464Z,6.90
2023-04-13T05:14:24.921Z,6.90
2023-04-13T05:16:54.668Z,6.90
2023-04-13T05:19:49.916Z,6.70
2023-04-13T05:22:23.697Z,6.90
2023-04-13T05:24:57.762Z,7.10
2023-04-13T05:27:27.842Z,7.00
2023-04-13T05:29:59.350Z,6.80
2023-04-13T05:32:29.113Z,7.00
2023-04-13T05:34:59.450Z,6.80
2023-04-13T05:37:32.728Z,6.60
2023-04-13T05:40:08.296Z,6.30
2023-04-13T05:42:37.017Z,6.40
2023-04-13T05:45:10.633Z,6.60
2023-04-13T05:47:47.849Z,6.10
2023-04-13T05:50:16.258Z,5.90
2023-04-13T05:52:45.222Z,5.90
2023-04-13T05:55:14.009Z,5.70
2023-04-13T05:57:43.868Z,5.80
2023-04-13T06:00:16.737Z,5.80
2023-04-13T06:02:49.562Z,5.60
2023-04-13T06:05:18.445Z,5.60
2023-04-13T06:07:49.720Z,5.30
2023-04-13T06:10:19.738Z,4.80
2023-04-13T06:12:53.251Z,5.30
2023-04-13T06:15:50.116Z,5.10
2023-04-13T06:18:18.859Z,4.60
2023-04-13T06:20:48.869Z,4.40
2023-04-13T06:23:18.082Z,4.60
2023-04-13T06:25:47.033Z,4.70
2023-04-13T06:28:21.244Z,4.40
2023-04-13T06:30:52.691Z,4.70
2023-04-13T06:33:23.403Z,5.00
2023-04-13T06:35:56.468Z,4.50
2023-04-13T06:38:25.794Z,4.60
2023-04-13T06:41:02.450Z,4.80
2023-04-13T06:43:37.510Z,4.60
2023-04-13T06:48:51.937Z,4.60
2023-04-13T06:51:23.628Z,5.70
2023-04-13T06:53:54.803Z,5.40
2023-04-13T06:56:25.681Z,5.10
2023-04-13T06:59:00.219Z,4.50
2023-04-13T07:01:31.194Z,4.60
2023-04-13T07:04:12.481Z,5.00
2023-04-13T07:06:46.466Z,4.90
2023-04-13T07:09:15.562Z,5.00
2023-04-13T07:11:51.943Z,5.10
2023-04-13T07:14:20.885Z,5.00
2023-04-13T07:16:49.464Z,4.70
2023-04-13T07:19:25.892Z,5.30
2023-04-13T07:21:54.518Z,4.80
2023-04-13T07:24:29.339Z,5.90
2023-04-13T07:27:01.625Z,6.10
2023-04-13T07:29:30.407Z,5.60
2023-04-13T07:32:02.707Z,5.50
2023-04-13T07:34:33.677Z,6.70
2023-04-13T07:37:02.020Z,5.90
2023-04-13T07:39:31.074Z,5.90
2023-04-13T07:42:00.048Z,5.90
2023-04-13T07:44:38.397Z,5.90
2023-04-13T07:47:07.991Z,6.10
2023-04-13T07:49:37.915Z,5.70
2023-04-13T07:52:08.875Z,7.00
2023-04-13T07:54:38.191Z,6.50
2023-04-13T07:57:08.005Z,6.10
2023-04-13T07:59:38.238Z,6.50
2023-04-13T08:02:08.298Z,7.10
2023-04-13T08:04:37.733Z,7.00
2023-04-13T08:07:07.438Z,7.10
2023-04-13T08:09:44.113Z,7.10
2023-04-13T08:12:13.894Z,6.90
2023-04-13T08:14:48.741Z,8.20
2023-04-13T08:17:20.681Z,7.50
2023-04-13T08:19:49.417Z,7.70
2023-04-13T08:22:22.606Z,7.10
2023-04-13T08:24:53.281Z,8.30
2023-04-13T08:27:21.907Z,7.70
2023-04-13T08:29:56.637Z,7.80
2023-04-13T08:32:28.643Z,7.70
2023-04-13T08:34:58.439Z,8.10
2023-04-13T08:37:28.105Z,8.40
2023-04-13T08:40:01.061Z,8.60
2023-04-13T08:42:30.595Z,8.60
2023-04-13T08:44:59.822Z,9.70
2023-04-13T08:47:29.219Z,9.40
2023-04-13T08:49:59.275Z,8.60
2023-04-13T08:52:40.421Z,9.00
2023-04-13T08:55:09.863Z,8.80
2023-04-13T08:57:38.106Z,7.70
2023-04-13T09:00:18.038Z,8.20
2023-04-13T09:03:03.073Z,7.60
2023-04-13T09:05:37.039Z,8.20
2023-04-13T09:08:08.166Z,7.90
2023-04-13T09:10:42.362Z,8.20
2023-04-13T09:13:11.578Z,8.30
2023-04-13T09:15:41.176Z,8.40
2023-04-13T09:18:21.602Z,7.90
2023-04-13T09:20:58.979Z,8.20
2023-04-13T09:23:27.843Z,7.90
2023-04-13T09:26:16.606Z,8.00
2023-04-13T09:31:21.509Z,8.00
2023-04-13T09:33:51.455Z,7.10
2023-04-13T09:36:25.975Z,7.80
2023-04-13T09:38:56.238Z,7.90
2023-04-13T09:41:31.978Z,7.00
2023-04-13T09:44:16.142Z,6.30
2023-04-13T09:47:09.624Z,7.10
2023-04-13T09:49:41.975Z,7.90
2023-04-13T09:52:22.881Z,7.70
2023-04-13T09:54:55.907Z,7.50
2023-04-13T09:57:28.164Z,7.30
2023-04-13T10:00:02.542Z,6.80
2023-04-13T10:02:43.009Z,6.70
2023-04-13T10:05:12.855Z,6.30
2023-04-13T10:07:44.648Z,6.60
2023-04-13T10:10:15.358Z,6.00
2023-04-13T10:12:48.909Z,6.90
2023-04-13T10:15:55.655Z,6.50
2023-04-13T10:19:02.728Z,6.40
2023-04-13T10:21:36.338Z,6.10
2023-04-13T10:24:14.365Z,5.70
2023-04-13T10:26:46.738Z,6.10
2023-04-13T10:29:16.976Z,6.20
2023-04-13T10:31:47.273Z,6.10
2023-04-13T10:34:28.975Z,5.90
2023-04-13T10:37:03.940Z,6.20
2023-04-13T10:39:34.021Z,6.50
2023-04-13T10:42:12.977Z,5.60
2023-04-13T10:44:45.777Z,5.90
2023-04-13T10:47:15.254Z,5.90
2023-04-13T10:49:44.371Z,5.00
2023-04-13T10:52:12.603Z,5.10
2023-04-13T10:54:42.018Z,5.00
2023-04-13T10:57:14.978Z,4.90
2023-04-13T10:59:58.757Z,4.90
2023-04-13T11:02:34.196Z,4.30
2023-04-13T11:05:02.879Z,4.50
2023-04-13T11:07:33.751Z,4.10
2023-04-13T11:10:03.825Z,4.10
2023-04-13T11:12:33.180Z,3.80
2023-04-13T11:15:03.939Z,3.70
2023-04-13T11:17:33.263Z,4.30
2023-04-13T11:20:02.439Z,3.90
2023-04-13T11:22:36.689Z,4.00
2023-04-13T11:25:06.998Z,4.40
2023-04-13T11:27:35.368Z,3.90
2023-04-13T11:30:06.124Z,4.10
2023-04-13T11:32:36.789Z,4.70
2023-04-13T11:35:14.119Z,4.60
2023-04-13T11:37:43.799Z,4.30
2023-04-13T11:40:20.554Z,5.10
2023-04-13T11:42:53.602Z,4.10
2023-04-13T11:45:27.017Z,4.10
2023-04-13T11:47:58.250Z,4.10
2023-04-13T11:50:26.888Z,3.70
2023-04-13T11:52:58.496Z,3.60
2023-04-13T11:55:26.855Z,4.10
2023-04-13T11:57:55.459Z,3.70
2023-04-13T12:00:26.718Z,3.60
2023-04-13T12:03:02.387Z,3.60
2023-04-13T12:05:33.090Z,3.50
2023-04-13T12:08:07.347Z,3.40
2023-04-13T12:10:43.286Z,3.30
2023-04-13T12:13:22.871Z,3.30
2023-04-13T12:16:08.726Z,3.20
2023-04-13T12:18:44.479Z,3.40
2023-04-13T12:21:20.488Z,3.40
2023-04-13T12:23:54.820Z,4.10
2023-04-13T12:29:08.761Z,3.60
2023-04-13T12:31:40.522Z,4.80
2023-04-13T12:34:08.879Z,5.10
2023-04-13T12:36:37.437Z,5.60
2023-04-13T12:39:06.945Z,6.20
2023-04-13T12:41:35.844Z,6.10
2023-04-13T12:44:07.194Z,5.80
2023-04-13T12:46:35.594Z,5.70
2023-04-13T12:49:05.205Z,5.70
2023-04-13T12:51:35.512Z,34.20
2023-04-13T12:54:03.974Z,23.70
2023-04-13T12:56:33.651Z,23.40
2023-04-13T12:59:02.350Z,38.00
2023-04-13T13:01:31.386Z,44.40
2023-04-13T13:04:01.149Z,23.10
2023-04-13T13:06:29.878Z,41.80
2023-04-13T13:08:58.737Z,35.50
2023-04-13T13:11:27.913Z,24.60
2023-04-13T13:13:56.524Z,10.80
2023-04-13T13:16:25.002Z,8.20
2023-04-13T13:18:53.735Z,7.60
2023-04-13T13:21:23.322Z,6.90
2023-04-13T13:23:51.690Z,7.20
2023-04-13T13:26:24.404Z,7.00
2023-04-13T13:31:47.761Z,6.60
2023-04-13T13:34:15.744Z,7.20
2023-04-13T13:36:43.764Z,6.70
2023-04-13T13:39:13.942Z,6.50
2023-04-13T13:41:42.310Z,6.60
2023-04-13T13:44:11.056Z,6.70
2023-04-13T13:46:39.997Z,6.90
2023-04-13T13:49:08.839Z,7.10
2023-04-13T13:51:55.907Z,6.90
2023-04-13T13:54:26.420Z,7.70
2023-04-13T13:56:54.435Z,6.80
2023-04-13T13:59:22.557Z,6.90
2023-04-13T14:01:50.863Z,7.60
2023-04-13T14:04:19.047Z,6.80
2023-04-13T14:06:54.048Z,6.70
2023-04-13T14:09:22.658Z,6.60
2023-04-13T14:11:50.916Z,6.70
2023-04-13T14:14:22.269Z,6.80
2023-04-13T14:16:54.384Z,6.40
2023-04-13T14:19:23.459Z,6.60
2023-04-13T14:21:53.509Z,6.30
2023-04-13T14:24:26.360Z,7.00
2023-04-13T14:26:56.192Z,6.70
2023-04-13T14:29:24.421Z,6.70
2023-04-13T14:31:53.044Z,6.70
2023-04-13T14:34:21.233Z,7.00
2023-04-13T14:36:52.184Z,6.40
2023-04-13T14:39:26.014Z,6.70
2023-04-13T14:41:56.341Z,6.20
2023-04-13T14:44:25.496Z,6.60
2023-04-13T14:46:54.549Z,6.40
2023-04-13T14:49:22.848Z,6.30
2023-04-13T14:51:52.264Z,5.70
2023-04-13T14:54:22.997Z,5.70
2023-04-13T14:56:51.504Z,6.20
2023-04-13T14:59:19.945Z,6.30
2023-04-13T15:01:48.931Z,5.90
2023-04-13T15:04:19.705Z,6.30
2023-04-13T15:06:49.563Z,6.30
2023-04-13T15:09:18.351Z,6.30
2023-04-13T15:11:46.384Z,6.90
2023-04-13T15:14:14.359Z,6.80
2023-04-13T15:16:42.673Z,6.70
2023-04-13T15:19:12.185Z,6.90
2023-04-13T15:21:49.312Z,6.60
2023-04-13T15:24:20.191Z,7.20
2023-04-13T15:26:49.258Z,6.80
2023-04-13T15:29:17.878Z,6.90
2023-04-13T15:31:46.547Z,6.70
2023-04-13T15:34:14.578Z,6.90
2023-04-13T15:36:44.270Z,6.80
2023-04-13T15:39:12.311Z,6.90
2023-04-13T15:41:40.257Z,6.90
2023-04-13T15:44:08.797Z,6.80
2023-04-13T15:46:38.035Z,6.80
2023-04-13T15:49:07.148Z,6.70
2023-04-13T15:51:35.392Z,6.40
2023-04-13T15:54:04.393Z,6.20
2023-04-13T15:56:33.051Z,6.60
2023-04-13T15:59:01.652Z,6.40
2023-04-13T16:01:44.593Z,6.10
2023-04-13T16:04:13.145Z,7.00
2023-04-13T16:06:42.578Z,6.40
2023-04-13T16:09:11.917Z,6.10
2023-04-13T16:11:42.226Z,6.70
2023-04-13T16:14:10.269Z,6.90
2023-04-13T16:16:46.785Z,7.20
2023-04-13T16:19:18.320Z,6.70
2023-04-13T16:21:47.243Z,6.70
2023-04-13T16:24:17.232Z,6.90
2023-04-13T16:26:46.207Z,6.90
2023-04-13T16:29:15.413Z,6.70
2023-04-13T16:31:46.962Z,6.50
2023-04-13T16:34:25.624Z,6.80
2023-04-13T16:36:55.007Z,7.10
2023-04-13T16:39:24.066Z,7.40
2023-04-13T16:41:52.206Z,7.10
2023-04-13T16:44:20.432Z,7.10
2023-04-13T16:46:48.751Z,7.00
2023-04-13T16:49:17.024Z,7.50
2023-04-13T16:51:45.673Z,7.10
2023-04-13T16:54:18.053Z,7.90
2023-04-13T16:56:47.194Z,8.50
2023-04-13T16:59:15.725Z,8.00
2023-04-13T17:01:44.029Z,7.90
2023-04-13T17:04:12.651Z,8.00
2023-04-13T17:06:41.262Z,7.70
2023-04-13T17:09:10.046Z,7.70
2023-04-13T17:11:39.003Z,7.70
2023-04-13T17:14:07.094Z,8.20
2023-04-13T17:16:38.925Z,8.70
2023-04-13T17:19:07.397Z,8.40
2023-04-13T17:21:37.470Z,8.30
2023-04-13T17:24:06.200Z,8.60
2023-04-13T17:26:37.526Z,8.50
2023-04-13T17:29:06.679Z,8.40
2023-04-13T17:31:34.943Z,9.10
2023-04-13T17:34:04.068Z,8.60
2023-04-13T17:36:32.826Z,9.20
2023-04-13T17:39:01.938Z,8.60
2023-04-13T17:41:35.788Z,8.60
2023-04-13T17:44:04.720Z,9.10
2023-04-13T17:46:32.836Z,8.90
2023-04-13T17:49:03.112Z,9.00
2023-04-13T17:51:33.574Z,8.80
2023-04-13T17:54:01.649Z,9.10
2023-04-13T17:56:31.476Z,9.50
2023-04-13T17:58:59.836Z,9.60
2023-04-13T18:01:28.123Z,9.90
2023-04-13T18:03:59.593Z,9.30
2023-04-13T18:06:28.034Z,9.90
2023-04-13T18:08:56.446Z,10.90
2023-04-13T18:11:24.715Z,10.40
2023-04-13T18:13:54.884Z,10.70
2023-04-13T18:16:23.116Z,10.10
2023-04-13T18:18:51.654Z,10.00
2023-04-13T18:21:19.799Z,9.90
2023-04-13T18:23:48.272Z,9.80
2023-04-13T18:26:16.725Z,10.00
2023-04-13T18:28:44.922Z,10.30
2023-04-13T18:31:13.702Z,9.20
2023-04-13T18:33:44.132Z,9.90
2023-04-13T18:36:16.577Z,9.50
2023-04-13T18:38:45.493Z,9.30
2023-04-13T18:41:14.759Z,9.30
2023-04-13T18:43:43.093Z,9.10
2023-04-13T18:46:12.227Z,8.20
2023-04-13T18:48:40.767Z,8.50
2023-04-13T18:51:14.026Z,8.70
2023-04-13T18:53:42.541Z,8.40
2023-04-13T18:56:11.050Z,7.90
2023-04-13T18:58:41.926Z,8.90
2023-04-13T19:01:16.428Z,7.80
2023-04-13T19:03:46.035Z,7.90
2023-04-13T19:06:20.218Z,8.20
2023-04-13T19:08:51.086Z,8.10
2023-04-13T19:11:20.111Z,7.90
2023-04-13T19:13:48.253Z,7.80
2023-04-13T19:16:23.747Z,7.80
2023-04-13T19:18:53.913Z,7.70
2023-04-13T19:21:24.079Z,7.70
2023-04-13T19:23:57.023Z,7.50
2023-04-13T19:26:27.203Z,7.00
2023-04-13T19:28:55.819Z,6.80
2023-04-13T19:31:24.168Z,7.00
2023-04-13T19:33:57.980Z,6.90
2023-04-13T19:36:26.385Z,6.20
2023-04-13T19:38:54.611Z,6.50
2023-04-13T19:41:23.732Z,6.50
2023-04-13T19:43:52.773Z,6.90
2023-04-13T19:46:21.117Z,6.60
2023-04-13T19:48:50.204Z,6.80
2023-04-13T19:51:18.434Z,6.20
2023-04-13T19:53:48.576Z,6.60
2023-04-13T19:56:17.572Z,6.40
2023-04-13T19:58:45.921Z,6.50
2023-04-13T20:01:16.858Z,6.50
2023-04-13T20:03:49.385Z,6.60
2023-04-13T20:06:18.496Z,6.80
2023-04-13T20:08:47.040Z,6.90
2023-04-13T20:11:17.551Z,7.00
2023-04-13T20:13:47.394Z,7.80
2023-04-13T20:16:16.081Z,7.70
2023-04-13T20:18:47.662Z,8.10
2023-04-13T20:21:18.373Z,8.10
2023-04-13T20:23:46.608Z,8.50
2023-04-13T20:26:15.184Z,8.30
2023-04-13T20:28:43.711Z,8.70
2023-04-13T20:31:13.082Z,8.50
2023-04-13T20:33:41.426Z,8.10
2023-04-13T20:36:10.134Z,9.00
2023-04-13T20:38:42.898Z,8.30
2023-04-13T20:41:13.913Z,8.50
2023-04-13T20:43:43.669Z,8.80
2023-04-13T20:46:11.805Z,8.30
2023-04-13T20:51:15.924Z,9.10
2023-04-13T20:53:45.401Z,8.70
2023-04-13T20:56:14.300Z,9.70
2023-04-13T20:58:42.876Z,8.90
2023-04-13T21:01:10.947Z,8.90
2023-04-13T21:03:41.216Z,9.30
2023-04-13T21:06:09.646Z,8.90
2023-04-13T21:08:38.268Z,9.40
2023-04-13T21:11:07.643Z,9.00
2023-04-13T21:13:36.845Z,8.80
2023-04-13T21:16:06.910Z,8.90
2023-04-13T21:18:51.930Z,8.40
2023-04-13T21:21:24.232Z,8.90
2023-04-13T21:23:52.878Z,8.60
2023-04-13T21:26:21.793Z,8.10
2023-04-13T21:28:53.146Z,8.50
2023-04-13T21:31:21.134Z,8.70
2023-04-13T21:33:50.199Z,8.80
2023-04-13T21:38:50.116Z,8.00
2023-04-13T21:41:19.898Z,8.80
2023-04-13T21:43:48.600Z,8.20
2023-04-13T21:46:17.253Z,8.30
2023-04-13T21:48:45.988Z,8.10
2023-04-13T21:51:14.333Z,8.60
2023-04-13T21:53:43.045Z,8.80
2023-04-13T21:56:11.683Z,8.10
2023-04-13T21:58:44.971Z,9.00
2023-04-13T22:01:13.570Z,8.40
2023-04-13T22:03:47.905Z,8.30
2023-04-13T22:08:48.867Z,8.70
2023-04-13T22:11:17.142Z,8.50
2023-04-13T22:13:45.752Z,8.40
2023-04-13T22:16:14.769Z,8.80
2023-04-13T22:18:46.252Z,9.30
2023-04-13T22:21:14.388Z,8.80
2023-04-13T22:23:43.058Z,8.90
2023-04-13T22:26:11.541Z,8.90
2023-04-13T22:28:39.811Z,8.80
2023-04-13T22:31:14.790Z,8.40
2023-04-13T22:33:44.684Z,8.90
2023-04-13T22:36:20.254Z,9.30
2023-04-13T22:38:48.923Z,8.60
2023-04-13T22:41:17.684Z,8.60
2023-04-13T22:43:45.955Z,9.30
2023-04-13T22:46:14.335Z,9.30
2023-04-13T22:48:42.895Z,9.30
2023-04-13T22:51:11.036Z,9.50
2023-04-13T22:53:39.401Z,8.90
2023-04-13T22:56:08.574Z,9.10
2023-04-13T22:58:37.147Z,9.00
2023-04-13T23:01:06.035Z,9.20
2023-04-13T23:03:36.889Z,9.20
2023-04-13T23:06:06.461Z,8.70
2023-04-13T23:08:39.478Z,9.20
2023-04-13T23:11:09.759Z,8.90
2023-04-13T23:13:38.319Z,9.00
2023-04-13T23:16:08.354Z,8.90
2023-04-13T23:18:36.823Z,8.80
2023-04-13T23:21:12.166Z,8.50
2023-04-13T23:23:40.687Z,9.20
2023-04-13T23:26:09.971Z,8.70
2023-04-13T23:28:38.173Z,8.40
2023-04-13T23:31:07.195Z,8.30
2023-04-13T23:33:36.810Z,9.30
2023-04-13T23:36:05.831Z,9.10
2023-04-13T23:38:36.392Z,9.40
2023-04-13T23:41:05.996Z,9.00
2023-04-13T23:43:34.539Z,8.40
2023-04-13T23:46:03.106Z,8.60
2023-04-13T23:48:32.075Z,8.30
2023-04-13T23:51:00.390Z,9.00
2023-04-13T23:53:29.109Z,8.60
2023-04-13T23:55:57.234Z,9.20
2023-04-13T23:58:25.810Z,8.60
